Terminal Aerodrome Forecast
Issued by NWS Sterling, VA

Current Version | Previous Version | Graphics & Text | Print | Product List | Glossary On
Versions: 1 2 3 4 5 6 7 8 9 10 11 12 13 14 15
000
FTUS41 KLWX 312032 AAA
TAFMRB
TAF AMD
KMRB 312032Z 3121/0118 25004KT P6SM SCT070 BKN250
     FM010600 VRB03KT 5SM BR FEW250
     FM011300 00000KT 6SM BR FEW250=

USA.gov is the U.S. government's official web portal to all federal, state and local government web resources and services.